Time;durP1;ratioP1;P1;durP2;ratioP2;P2;SDS_P1;SDS_P2;PMS_P1;PMS_P2;Temp;Humidity;BMP_temperature;BMP_pressure;BME280_temperature;BME280_humidity;BME280_pressure;Samples;Min_cycle;Max_cycle;Signal;HPM_P1;HPM_P2
2023/07/26 00:00:21;;;;;;;12.43;11.40;;;17.30;99.90;;;;;;10331453;28;20235;-85
2023/07/26 00:05:23;;;;;;;13.90;12.70;;;17.30;99.90;;;;;;10332341;28;20222;-86
2023/07/26 00:10:27;;;;;;;15.50;14.07;;;17.20;99.90;;;;;;10333672;28;20291;-86
2023/07/26 00:15:29;;;;;;;13.97;12.67;;;17.20;99.90;;;;;;10330771;28;20240;-86
2023/07/26 00:20:31;;;;;;;12.70;11.70;;;17.30;99.90;;;;;;10316256;28;20250;-86
2023/07/26 00:25:35;;;;;;;12.93;11.97;;;17.30;99.90;;;;;;10334161;28;20748;-87
2023/07/26 00:30:37;;;;;;;14.80;13.33;;;17.30;99.90;;;;;;10329056;28;20633;-86
2023/07/26 00:35:41;;;;;;;13.80;12.40;;;17.40;99.90;;;;;;10330855;28;20768;-87
2023/07/26 00:40:45;;;;;;;15.63;14.33;;;17.40;99.90;;;;;;10336324;28;20207;-85
2023/07/26 00:45:47;;;;;;;14.43;13.13;;;17.40;99.90;;;;;;10330058;28;20223;-86
2023/07/26 00:50:49;;;;;;;13.50;12.30;;;17.40;99.90;;;;;;10332470;28;20211;-87
2023/07/26 00:55:53;;;;;;;14.83;12.77;;;17.50;99.90;;;;;;10331436;28;20254;-86
2023/07/26 01:00:55;;;;;;;12.93;11.83;;;17.50;99.90;;;;;;10324226;28;20212;-87
2023/07/26 01:06:06;;;;;;;14.50;13.20;;;17.50;99.90;;;;;;10324164;28;20220;-88
2023/07/26 01:11:19;;;;;;;11.93;10.73;;;17.60;99.90;;;;;;10356686;28;20215;-85
2023/07/26 01:16:21;;;;;;;14.83;12.63;;;17.60;99.90;;;;;;10338422;28;20232;-88
2023/07/26 01:21:23;;;;;;;12.13;11.20;;;17.60;99.90;;;;;;10332349;28;20922;-83
2023/07/26 01:26:27;;;;;;;11.87;10.90;;;17.60;99.90;;;;;;10323506;28;20303;-85
2023/07/26 01:31:30;;;;;;;11.50;10.40;;;17.60;99.90;;;;;;10336439;28;20212;-85
2023/07/26 01:36:32;;;;;;;10.83;9.93;;;17.60;99.90;;;;;;10331182;28;20710;-86
2023/07/26 01:41:37;;;;;;;12.83;11.80;;;17.50;99.90;;;;;;10341048;28;20200;-85
2023/07/26 01:46:40;;;;;;;11.07;10.30;;;17.30;99.90;;;;;;10343043;28;20598;-85
2023/07/26 01:51:42;;;;;;;11.40;10.23;;;17.20;99.90;;;;;;10325580;28;20205;-87
2023/07/26 01:56:46;;;;;;;8.97;8.23;;;17.20;99.90;;;;;;10333292;28;20236;-85
2023/07/26 02:01:48;;;;;;;9.33;8.63;;;17.10;99.90;;;;;;10341807;28;20557;-86
2023/07/26 02:06:51;;;;;;;8.87;8.10;;;17.00;99.90;;;;;;10324738;28;20215;-87
2023/07/26 02:11:55;;;;;;;8.83;8.23;;;17.00;99.90;;;;;;10341888;28;20211;-86
2023/07/26 02:16:58;;;;;;;7.50;6.90;;;17.00;99.90;;;;;;10338075;28;20228;-87
2023/07/26 02:22:00;;;;;;;8.83;8.07;;;16.90;99.90;;;;;;10341255;28;20624;-86
2023/07/26 02:27:04;;;;;;;7.60;6.87;;;16.90;99.90;;;;;;10325071;28;20675;-87
2023/07/26 02:32:07;;;;;;;7.60;6.90;;;16.90;99.90;;;;;;10339336;28;20234;-86
2023/07/26 02:37:09;;;;;;;6.90;6.37;;;16.80;99.90;;;;;;10352058;28;20243;-87
2023/07/26 02:42:13;;;;;;;6.63;6.17;;;16.80;99.90;;;;;;10357891;28;20299;-87
2023/07/26 02:47:15;;;;;;;6.80;6.20;;;16.70;99.90;;;;;;10341357;28;20228;-86
2023/07/26 02:52:17;;;;;;;7.57;6.87;;;16.70;99.90;;;;;;10324651;28;20232;-86
2023/07/26 02:57:20;;;;;;;7.20;6.27;;;16.80;99.90;;;;;;10337445;28;20227;-87
2023/07/26 03:02:23;;;;;;;7.13;6.63;;;16.70;99.90;;;;;;10359196;28;20283;-87
2023/07/26 03:07:25;;;;;;;6.63;6.07;;;16.70;99.90;;;;;;10344149;28;20630;-88
2023/07/26 03:12:28;;;;;;;6.50;5.90;;;16.70;99.90;;;;;;10350824;28;20270;-86
2023/07/26 03:17:30;;;;;;;6.57;6.17;;;16.70;99.90;;;;;;10352559;28;20232;-87
2023/07/26 03:22:33;;;;;;;5.17;4.87;;;16.80;99.90;;;;;;10338529;28;20207;-86
2023/07/26 03:27:36;;;;;;;7.83;5.20;;;16.80;99.90;;;;;;10338356;28;20220;-86
2023/07/26 03:32:38;;;;;;;5.73;5.33;;;16.80;99.90;;;;;;10342218;28;20286;-85
2023/07/26 03:37:40;;;;;;;6.33;5.83;;;16.80;99.90;;;;;;10337555;28;20239;-85
2023/07/26 03:42:44;;;;;;;5.93;5.43;;;16.80;99.90;;;;;;10339209;28;20204;-85
2023/07/26 03:47:46;;;;;;;6.30;5.53;;;16.80;99.90;;;;;;10338186;28;21100;-86
2023/07/26 03:52:48;;;;;;;6.50;5.90;;;16.80;99.90;;;;;;10342220;28;20873;-86
2023/07/26 03:57:51;;;;;;;6.57;5.63;;;16.80;99.90;;;;;;10335934;28;20795;-86
2023/07/26 04:02:53;;;;;;;5.60;5.20;;;16.80;99.90;;;;;;10342596;28;20920;-86
2023/07/26 04:07:55;;;;;;;5.50;5.03;;;16.70;99.90;;;;;;10345223;28;20285;-86
2023/07/26 04:12:59;;;;;;;6.03;5.63;;;16.70;99.90;;;;;;10354823;28;20200;-86
2023/07/26 04:18:01;;;;;;;5.80;5.30;;;16.60;99.90;;;;;;10336230;28;20231;-85
2023/07/26 04:23:03;;;;;;;4.67;4.37;;;16.60;99.90;;;;;;10338538;28;20259;-86
2023/07/26 04:28:07;;;;;;;5.60;5.20;;;16.60;99.90;;;;;;10350953;28;20448;-85
2023/07/26 04:33:09;;;;;;;5.30;4.80;;;16.60;99.90;;;;;;10338890;28;20207;-85
2023/07/26 04:38:11;;;;;;;6.47;5.67;;;16.60;99.90;;;;;;10336430;28;20291;-85
2023/07/26 04:43:16;;;;;;;6.10;5.60;;;16.60;99.90;;;;;;10332685;28;20211;-85
2023/07/26 04:48:19;;;;;;;5.77;4.97;;;16.60;99.90;;;;;;10335944;28;20225;-85
2023/07/26 04:53:21;;;;;;;5.97;5.43;;;16.70;99.90;;;;;;10336622;28;20204;-87
2023/07/26 04:58:24;;;;;;;5.63;5.10;;;16.80;99.90;;;;;;10339415;28;20223;-87
2023/07/26 05:03:26;;;;;;;5.20;4.80;;;16.80;99.90;;;;;;10341019;28;20920;-85
2023/07/26 05:08:29;;;;;;;5.80;5.40;;;16.90;99.90;;;;;;10344061;28;20632;-85
2023/07/26 05:13:32;;;;;;;6.17;5.67;;;17.00;99.90;;;;;;10347622;28;20295;-87
2023/07/26 05:18:34;;;;;;;5.50;5.10;;;17.00;99.90;;;;;;10356625;28;20249;-88
2023/07/26 05:23:36;;;;;;;4.57;4.20;;;17.00;99.90;;;;;;10357238;28;20315;-85
2023/07/26 05:28:40;;;;;;;6.03;5.53;;;17.00;99.90;;;;;;10345925;28;20926;-86
2023/07/26 05:33:42;;;;;;;5.50;5.13;;;17.00;99.90;;;;;;10345898;28;20521;-85
2023/07/26 05:38:44;;;;;;;4.10;3.90;;;17.00;99.90;;;;;;10330330;28;20235;-85
2023/07/26 05:43:48;;;;;;;5.63;5.10;;;17.00;99.90;;;;;;10347132;28;20235;-86
2023/07/26 05:48:50;;;;;;;5.50;5.00;;;17.00;99.90;;;;;;10345827;28;20200;-85
2023/07/26 05:53:52;;;;;;;5.50;5.13;;;17.00;99.90;;;;;;10365416;28;20229;-88
2023/07/26 05:58:55;;;;;;;6.70;6.20;;;17.10;99.90;;;;;;10350270;28;20235;-87
2023/07/26 06:03:57;;;;;;;5.93;5.47;;;17.20;99.90;;;;;;10340270;28;20307;-85
2023/07/26 06:09:00;;;;;;;7.57;5.57;;;17.40;99.90;;;;;;10340945;28;20200;-85
2023/07/26 06:14:03;;;;;;;5.80;5.40;;;17.60;99.90;;;;;;10341852;28;20987;-85
2023/07/26 06:19:06;;;;;;;5.10;4.47;;;17.80;99.90;;;;;;10338211;28;20223;-85
2023/07/26 06:24:08;;;;;;;5.27;4.20;;;17.90;99.90;;;;;;10343785;28;20224;-87
2023/07/26 06:29:12;;;;;;;4.60;4.30;;;18.20;99.90;;;;;;10338787;28;20211;-86
2023/07/26 06:34:14;;;;;;;5.20;4.80;;;18.40;99.90;;;;;;10338932;28;20219;-85
2023/07/26 06:39:16;;;;;;;4.07;3.77;;;18.60;99.90;;;;;;10337014;28;20321;-86
2023/07/26 06:44:19;;;;;;;4.80;4.50;;;18.60;99.90;;;;;;10343984;28;20607;-86
2023/07/26 06:49:21;;;;;;;7.70;4.60;;;18.70;99.90;;;;;;10336713;28;20233;-86
2023/07/26 06:54:24;;;;;;;4.67;4.20;;;18.80;99.90;;;;;;10341766;28;20991;-85
2023/07/26 06:59:27;;;;;;;4.00;3.73;;;18.80;99.90;;;;;;10340210;28;20227;-86
2023/07/26 07:04:29;;;;;;;4.20;3.70;;;18.90;99.90;;;;;;10346065;28;20235;-86
2023/07/26 07:09:31;;;;;;;4.27;3.97;;;18.90;99.90;;;;;;10344042;28;20255;-86
2023/07/26 07:14:35;;;;;;;4.90;4.60;;;18.90;99.90;;;;;;10349394;28;20261;-85
2023/07/26 07:19:37;;;;;;;4.87;4.47;;;18.80;99.90;;;;;;10337860;28;20281;-86
2023/07/26 07:24:39;;;;;;;4.00;3.70;;;18.80;99.90;;;;;;10340601;28;20248;-86
2023/07/26 07:29:43;;;;;;;5.40;4.60;;;18.70;99.90;;;;;;10350341;28;20200;-86
2023/07/26 07:34:46;;;;;;;6.43;5.83;;;18.60;99.90;;;;;;10355888;28;20228;-86
2023/07/26 07:39:48;;;;;;;5.40;4.80;;;18.40;99.90;;;;;;10341060;28;20234;-86
2023/07/26 07:44:52;;;;;;;6.00;5.50;;;18.10;99.90;;;;;;10338382;28;20668;-86
2023/07/26 07:49:54;;;;;;;6.50;6.10;;;17.80;99.90;;;;;;10339361;28;20200;-88
2023/07/26 07:54:56;;;;;;;11.67;6.60;;;17.40;99.90;;;;;;10334297;28;20260;-85
2023/07/26 08:00:00;;;;;;;7.07;6.40;;;17.40;99.90;;;;;;10332475;28;21060;-86
2023/07/26 08:05:02;;;;;;;6.87;6.10;;;17.30;99.90;;;;;;10332299;28;20231;-86
2023/07/26 08:10:05;;;;;;;6.50;6.10;;;17.30;99.90;;;;;;10332825;28;20195;-86
2023/07/26 08:15:09;;;;;;;6.20;5.60;;;17.30;99.90;;;;;;10337952;28;20307;-86
2023/07/26 08:20:12;;;;;;;6.13;5.50;;;17.30;99.90;;;;;;10331051;28;20235;-86
2023/07/26 08:25:14;;;;;;;5.40;4.97;;;17.30;99.90;;;;;;10331030;28;20643;-86
2023/07/26 08:30:18;;;;;;;6.13;5.27;;;17.40;99.90;;;;;;10334704;28;20290;-88
2023/07/26 08:35:20;;;;;;;6.37;5.80;;;17.40;99.90;;;;;;10335245;28;20294;-86
2023/07/26 08:40:22;;;;;;;4.87;4.53;;;17.40;99.90;;;;;;10337766;28;20227;-86
2023/07/26 08:45:27;;;;;;;3.30;3.10;;;17.40;99.90;;;;;;10341388;28;20291;-86
2023/07/26 08:50:30;;;;;;;4.30;3.43;;;17.50;99.90;;;;;;10341333;28;20212;-87
2023/07/26 08:55:32;;;;;;;2.97;2.77;;;17.70;99.90;;;;;;10342361;28;20223;-85
2023/07/26 09:00:36;;;;;;;2.90;2.70;;;17.90;99.90;;;;;;10347060;28;20482;-85
2023/07/26 09:05:39;;;;;;;3.60;2.03;;;18.00;99.90;;;;;;10345062;28;20239;-86
2023/07/26 09:10:41;;;;;;;2.00;1.70;;;18.10;99.90;;;;;;10351398;28;20204;-86
2023/07/26 09:15:45;;;;;;;1.37;1.33;;;18.30;99.90;;;;;;10349627;23;20238;-79
2023/07/26 09:20:47;;;;;;;1.70;1.60;;;18.40;99.90;;;;;;10318857;28;20280;-80
2023/07/26 09:25:49;;;;;;;1.83;1.43;;;18.60;99.90;;;;;;10324919;28;20236;-79
2023/07/26 09:30:53;;;;;;;1.70;1.60;;;18.70;99.90;;;;;;10310646;28;20695;-80
2023/07/26 09:35:55;;;;;;;1.60;1.50;;;18.90;99.90;;;;;;10311386;28;20680;-79
2023/07/26 09:40:57;;;;;;;2.30;1.77;;;18.90;99.90;;;;;;10309737;28;20940;-80
2023/07/26 09:46:02;;;;;;;1.80;1.70;;;18.80;99.90;;;;;;10311634;28;20224;-80
2023/07/26 09:51:06;;;;;;;3.37;1.80;;;18.70;99.90;;;;;;10309556;28;20210;-78
2023/07/26 09:56:09;;;;;;;1.83;1.73;;;18.60;99.90;;;;;;10319357;28;20319;-79
2023/07/26 10:01:15;;;;;;;2.87;2.67;;;18.60;99.90;;;;;;10314067;28;20250;-79
2023/07/26 10:06:19;;;;;;;6.40;1.80;;;18.70;99.90;;;;;;10318275;28;20306;-82
2023/07/26 10:11:22;;;;;;;1.90;1.70;;;19.20;99.90;;;;;;10318428;28;20584;-80
2023/07/26 10:16:27;;;;;;;1.80;1.70;;;20.00;99.90;;;;;;10314909;28;20259;-81
2023/07/26 10:21:29;;;;;;;1.93;1.83;;;20.70;99.90;;;;;;10312110;28;20228;-79
2023/07/26 10:26:34;;;;;;;3.73;2.10;;;20.90;99.90;;;;;;10308760;28;20242;-79
2023/07/26 10:31:38;;;;;;;2.20;2.10;;;20.70;99.90;;;;;;10315339;28;20745;-78
2023/07/26 10:36:40;;;;;;;1.90;1.80;;;20.50;99.90;;;;;;10312385;28;20228;-80
2023/07/26 10:41:50;;;;;;;1.80;1.70;;;20.50;99.90;;;;;;10315415;28;20262;-81
2023/07/26 10:46:55;;;;;;;2.10;2.00;;;20.40;99.90;;;;;;10318242;28;20305;-80
2023/07/26 10:52:00;;;;;;;2.70;2.50;;;20.40;99.90;;;;;;10306722;28;20278;-80
2023/07/26 10:57:31;;;;;;;2.70;2.50;;;20.50;99.90;;;;;;10330849;28;20257;-81
2023/07/26 11:02:39;;;;;;;2.03;1.93;;;20.60;99.90;;;;;;10309897;28;20211;-81
2023/07/26 11:07:58;;;;;;;2.03;1.93;;;20.80;99.90;;;;;;10312260;28;20282;-81
2023/07/26 11:13:14;;;;;;;1.90;1.80;;;21.00;99.90;;;;;;10311853;28;20232;-80
2023/07/26 11:18:20;;;;;;;2.03;1.90;;;21.10;99.90;;;;;;10311912;28;20231;-81
2023/07/26 11:23:24;;;;;;;2.10;2.00;;;21.20;99.90;;;;;;10313735;28;20215;-80
2023/07/26 11:28:30;;;;;;;2.17;2.07;;;21.20;99.00;;;;;;10310479;28;20225;-80
2023/07/26 11:33:36;;;;;;;2.60;2.40;;;21.20;97.60;;;;;;10312898;28;20212;-80
2023/07/26 11:38:42;;;;;;;2.63;2.43;;;21.20;97.70;;;;;;10310499;28;20239;-80
2023/07/26 11:43:45;;;;;;;2.30;2.07;;;21.30;99.00;;;;;;10310751;28;20698;-80
2023/07/26 11:48:49;;;;;;;3.50;2.80;;;21.50;97.10;;;;;;10314548;28;20224;-80
2023/07/26 11:53:55;;;;;;;2.30;2.10;;;21.40;98.00;;;;;;10312950;28;20208;-80
2023/07/26 11:58:59;;;;;;;2.40;2.20;;;21.50;97.50;;;;;;10313563;28;20238;-81
2023/07/26 12:04:09;;;;;;;2.90;2.70;;;21.50;96.40;;;;;;10311868;28;20207;-80
2023/07/26 12:09:14;;;;;;;3.43;3.00;;;21.40;95.90;;;;;;10320607;28;20255;-80
2023/07/26 12:14:17;;;;;;;2.83;2.63;;;21.30;95.80;;;;;;10320937;28;20430;-79
2023/07/26 12:19:25;;;;;;;3.40;3.10;;;21.40;96.10;;;;;;10318191;28;20722;-80
2023/07/26 12:24:27;;;;;;;2.60;2.40;;;21.40;95.30;;;;;;10300853;28;20220;-83
2023/07/26 12:29:30;;;;;;;3.20;3.00;;;21.40;95.00;;;;;;10308962;28;20227;-79
2023/07/26 12:34:35;;;;;;;3.17;2.87;;;21.40;93.90;;;;;;10309883;28;20224;-81
2023/07/26 12:39:38;;;;;;;4.87;3.00;;;21.40;92.10;;;;;;10309607;28;20686;-80
2023/07/26 12:44:40;;;;;;;2.67;2.47;;;21.60;94.40;;;;;;10327855;28;20226;-81
2023/07/26 12:49:44;;;;;;;3.10;2.90;;;21.70;94.00;;;;;;10309441;28;20231;-82
2023/07/26 12:54:46;;;;;;;2.90;2.70;;;21.60;93.20;;;;;;10311236;28;20279;-80
2023/07/26 12:59:48;;;;;;;3.17;2.97;;;21.30;93.90;;;;;;10312232;28;20235;-80
2023/07/26 13:04:51;;;;;;;5.43;3.90;;;20.90;97.20;;;;;;10311203;28;20358;-82
2023/07/26 13:09:53;;;;;;;4.17;3.87;;;20.60;99.90;;;;;;10310162;28;20226;-80
2023/07/26 13:14:55;;;;;;;4.60;4.20;;;20.20;99.90;;;;;;10311157;28;20726;-82
2023/07/26 13:19:59;;;;;;;3.90;3.60;;;19.80;99.90;;;;;;10310391;28;20361;-80
2023/07/26 13:25:01;;;;;;;4.07;3.77;;;19.60;99.90;;;;;;10311867;28;20386;-80
2023/07/26 13:30:04;;;;;;;3.33;3.03;;;19.60;99.90;;;;;;10313794;28;20267;-81
2023/07/26 13:35:08;;;;;;;5.20;4.67;;;19.90;99.90;;;;;;10322447;28;20379;-81
2023/07/26 13:40:11;;;;;;;3.13;2.93;;;20.10;97.80;;;;;;10307825;28;20228;-81
2023/07/26 13:45:13;;;;;;;2.90;2.70;;;20.40;97.80;;;;;;10318975;28;20252;-81
2023/07/26 13:50:17;;;;;;;3.27;2.97;;;20.60;96.10;;;;;;10315313;28;20200;-81
2023/07/26 13:55:19;;;;;;;2.50;2.30;;;20.90;95.80;;;;;;10317573;28;20549;-81
2023/07/26 14:00:21;;;;;;;3.53;3.23;;;21.10;94.80;;;;;;10316238;28;20665;-81
2023/07/26 14:05:25;;;;;;;3.60;3.30;;;21.20;94.60;;;;;;10315126;28;20231;-80
2023/07/26 14:10:27;;;;;;;3.30;3.07;;;21.40;92.60;;;;;;10317251;28;21302;-80
2023/07/26 14:15:29;;;;;;;2.80;2.60;;;21.30;93.50;;;;;;10319368;28;21245;-82
2023/07/26 14:20:33;;;;;;;3.37;3.13;;;21.40;91.90;;;;;;10315118;28;20224;-80
2023/07/26 14:25:35;;;;;;;3.57;2.63;;;21.50;93.40;;;;;;10318447;28;20536;-81
2023/07/26 14:30:40;;;;;;;3.30;3.07;;;21.60;93.70;;;;;;10316943;28;20200;-82
2023/07/26 14:35:44;;;;;;;3.27;2.90;;;21.60;93.00;;;;;;10315310;28;20227;-80
2023/07/26 14:40:46;;;;;;;3.40;2.80;;;21.70;92.80;;;;;;10316084;28;20226;-80
2023/07/26 14:45:48;;;;;;;3.50;3.20;;;21.60;91.60;;;;;;10313831;28;20231;-80
2023/07/26 14:50:52;;;;;;;4.73;2.77;;;21.60;92.00;;;;;;10313345;28;20339;-81
2023/07/26 14:55:54;;;;;;;5.00;3.17;;;21.50;91.20;;;;;;10318038;28;20251;-80
2023/07/26 15:00:57;;;;;;;3.40;3.10;;;21.50;90.80;;;;;;10314219;28;20223;-80
2023/07/26 15:06:00;;;;;;;4.63;4.20;;;21.50;92.00;;;;;;10314852;28;20224;-81
2023/07/26 15:11:02;;;;;;;3.80;3.40;;;21.60;91.60;;;;;;10312040;28;20589;-81
2023/07/26 15:16:05;;;;;;;4.70;3.33;;;21.50;92.60;;;;;;10345036;23;20683;-86
2023/07/26 15:21:09;;;;;;;3.37;3.00;;;21.50;90.70;;;;;;10339671;28;20233;-87
2023/07/26 15:26:11;;;;;;;2.60;2.40;;;21.40;90.60;;;;;;10319467;28;20290;-88
2023/07/26 15:31:13;;;;;;;4.37;2.70;;;21.20;90.10;;;;;;10318630;28;20587;-87
2023/07/26 15:36:17;;;;;;;2.80;2.60;;;21.00;90.10;;;;;;10327419;28;20224;-86
2023/07/26 15:41:19;;;;;;;5.60;2.60;;;20.70;90.10;;;;;;10310532;28;20277;-86
2023/07/26 15:46:21;;;;;;;2.77;2.50;;;20.50;91.20;;;;;;10319767;28;20227;-88
2023/07/26 15:51:25;;;;;;;2.37;2.20;;;20.20;93.80;;;;;;10323186;28;20279;-86
2023/07/26 15:56:28;;;;;;;2.60;2.40;;;20.10;94.70;;;;;;10317752;28;20224;-88
2023/07/26 16:01:30;;;;;;;2.83;2.57;;;20.10;95.40;;;;;;10314008;28;20232;-86
2023/07/26 16:06:37;;;;;;;3.10;2.80;;;20.10;96.30;;;;;;10313994;28;20231;-86
2023/07/26 16:11:40;;;;;;;2.80;2.60;;;20.20;96.10;;;;;;10320059;28;20788;-87
2023/07/26 16:16:42;;;;;;;3.00;2.63;;;20.20;95.10;;;;;;10315233;28;20726;-86
2023/07/26 16:21:45;;;;;;;3.50;3.30;;;20.10;96.10;;;;;;10313955;28;20224;-86
2023/07/26 16:26:47;;;;;;;3.17;2.90;;;20.00;97.20;;;;;;10314442;28;20227;-86
2023/07/26 16:31:50;;;;;;;3.30;3.00;;;19.90;97.30;;;;;;10314783;28;20204;-88
2023/07/26 16:36:53;;;;;;;4.47;3.23;;;19.90;94.40;;;;;;10312959;28;20219;-86
2023/07/26 16:41:55;;;;;;;3.10;2.80;;;19.90;91.80;;;;;;10312218;28;20224;-87
2023/07/26 16:46:58;;;;;;;3.23;2.97;;;19.80;90.30;;;;;;10312962;28;20234;-86
2023/07/26 16:52:02;;;;;;;2.90;2.70;;;19.80;90.60;;;;;;10314672;28;20204;-86
2023/07/26 16:57:04;;;;;;;3.30;3.00;;;19.80;91.10;;;;;;10313334;28;20258;-86
2023/07/26 17:02:11;;;;;;;3.10;2.90;;;19.80;91.00;;;;;;10319179;28;20651;-86
2023/07/26 17:07:15;;;;;;;3.43;2.57;;;19.80;90.60;;;;;;10327198;28;20230;-86
2023/07/26 17:12:17;;;;;;;3.70;3.40;;;19.80;90.60;;;;;;10332492;28;20200;-86
2023/07/26 17:17:19;;;;;;;3.40;3.20;;;19.80;90.70;;;;;;10327321;28;20231;-87
2023/07/26 17:22:22;;;;;;;3.80;3.50;;;19.80;91.40;;;;;;10324511;28;20223;-86
2023/07/26 17:27:24;;;;;;;3.43;3.20;;;19.80;90.60;;;;;;10313558;28;20719;-88
2023/07/26 17:32:26;;;;;;;3.40;3.10;;;19.80;91.90;;;;;;10322186;28;20689;-87
2023/07/26 17:37:30;;;;;;;3.33;3.07;;;19.90;90.80;;;;;;10320746;28;20231;-87
2023/07/26 17:42:32;;;;;;;3.07;2.87;;;19.80;92.10;;;;;;10323381;28;20290;-87
2023/07/26 17:47:34;;;;;;;3.93;3.17;;;19.80;92.30;;;;;;10322827;28;20968;-86
2023/07/26 17:52:38;;;;;;;2.70;2.50;;;19.80;93.60;;;;;;10325297;28;20208;-87
2023/07/26 17:57:40;;;;;;;3.63;3.33;;;19.80;92.30;;;;;;10336785;28;20231;-88
2023/07/26 18:02:42;;;;;;;3.97;3.67;;;19.70;92.40;;;;;;10298395;28;20220;-87
2023/07/26 18:07:46;;;;;;;3.70;3.40;;;19.70;91.40;;;;;;10319534;28;20227;-88
2023/07/26 18:12:48;;;;;;;3.20;3.00;;;19.70;94.30;;;;;;10314740;28;20214;-87
2023/07/26 18:17:50;;;;;;;3.67;3.37;;;19.60;92.90;;;;;;10319056;28;20236;-86
2023/07/26 18:22:54;;;;;;;3.10;2.90;;;19.60;95.30;;;;;;10318488;28;20326;-86
2023/07/26 18:27:56;;;;;;;3.17;2.97;;;19.60;91.20;;;;;;10320892;28;20238;-86
2023/07/26 18:32:58;;;;;;;3.10;2.90;;;19.60;93.40;;;;;;10319778;28;20706;-86
2023/07/26 18:38:02;;;;;;;3.93;3.20;;;19.60;95.30;;;;;;10320235;28;20344;-87
2023/07/26 18:43:05;;;;;;;8.87;7.43;;;19.60;95.30;;;;;;10326132;28;20243;-87
2023/07/26 18:48:07;;;;;;;6.20;5.67;;;19.60;95.70;;;;;;10326918;28;20593;-86
2023/07/26 18:53:11;;;;;;;5.30;4.73;;;19.60;94.00;;;;;;10318120;28;20686;-86
2023/07/26 18:58:13;;;;;;;4.40;4.10;;;19.60;95.20;;;;;;10317578;28;20227;-86
2023/07/26 19:03:15;;;;;;;4.03;3.73;;;19.60;95.00;;;;;;10317868;28;20247;-86
2023/07/26 19:08:22;;;;;;;5.10;4.60;;;19.60;94.90;;;;;;10334563;28;20223;-86
2023/07/26 19:13:25;;;;;;;4.43;4.03;;;19.50;95.80;;;;;;10319696;28;20287;-86
2023/07/26 19:18:28;;;;;;;5.67;5.17;;;19.40;95.00;;;;;;10332045;28;20235;-86
2023/07/26 19:23:31;;;;;;;7.13;5.50;;;19.30;95.00;;;;;;10317333;28;20229;-86
2023/07/26 19:28:33;;;;;;;7.10;4.97;;;19.20;94.90;;;;;;10318280;28;20275;-86
2023/07/26 19:33:35;;;;;;;8.23;7.10;;;19.00;94.80;;;;;;10316790;28;20211;-87
2023/07/26 19:38:39;;;;;;;11.17;9.63;;;18.80;95.00;;;;;;10320811;28;20454;-86
2023/07/26 19:43:42;;;;;;;7.47;6.77;;;18.60;94.70;;;;;;10316817;28;20227;-88
2023/07/26 19:48:47;;;;;;;6.40;5.80;;;18.40;94.60;;;;;;10319583;28;20259;-88
2023/07/26 19:53:50;;;;;;;6.17;5.60;;;18.30;94.60;;;;;;10324941;28;20298;-86
2023/07/26 19:58:52;;;;;;;6.07;5.47;;;18.20;95.00;;;;;;10324787;28;20789;-86
2023/07/26 20:03:54;;;;;;;5.90;5.40;;;18.10;95.40;;;;;;10316148;28;20230;-86
2023/07/26 20:08:58;;;;;;;5.77;5.37;;;18.00;95.50;;;;;;10318108;28;20707;-86
2023/07/26 20:14:00;;;;;;;8.40;7.20;;;17.90;95.50;;;;;;10306108;28;20192;-86
2023/07/26 20:19:02;;;;;;;7.50;6.80;;;17.80;95.90;;;;;;10307758;28;20243;-87
2023/07/26 20:24:06;;;;;;;6.80;6.20;;;17.80;96.40;;;;;;10317494;28;20682;-86
2023/07/26 20:29:08;;;;;;;6.70;6.07;;;17.80;96.30;;;;;;10305475;28;20232;-87
2023/07/26 20:34:10;;;;;;;6.97;6.20;;;17.80;97.10;;;;;;10308646;28;20572;-87
2023/07/26 20:39:14;;;;;;;6.40;5.80;;;17.70;97.20;;;;;;10317914;28;20943;-87
2023/07/26 20:44:16;;;;;;;7.57;6.50;;;17.70;96.80;;;;;;10316710;28;20247;-86
2023/07/26 20:49:18;;;;;;;6.70;5.17;;;17.70;97.00;;;;;;10318526;28;20241;-88
2023/07/26 20:54:21;;;;;;;6.73;5.93;;;17.70;97.40;;;;;;10335213;28;20212;-86
2023/07/26 20:59:24;;;;;;;6.27;5.77;;;17.70;97.60;;;;;;10332318;28;20228;-88
2023/07/26 21:04:26;;;;;;;5.87;5.37;;;17.70;97.10;;;;;;10339907;28;20219;-89
2023/07/26 21:09:29;;;;;;;4.33;4.03;;;17.70;97.70;;;;;;10299389;28;20224;-86
2023/07/26 21:14:32;;;;;;;5.60;5.03;;;17.60;97.70;;;;;;10291367;28;20204;-86
2023/07/26 21:19:34;;;;;;;5.23;4.83;;;17.60;97.70;;;;;;10293886;23;20229;-81
2023/07/26 21:24:38;;;;;;;5.23;4.70;;;17.60;98.30;;;;;;10265777;28;20204;-82
2023/07/26 21:29:40;;;;;;;6.33;5.83;;;17.50;98.20;;;;;;10268010;28;20225;-79
2023/07/26 21:34:42;;;;;;;4.80;4.40;;;17.50;98.10;;;;;;10277761;28;20219;-80
2023/07/26 21:39:46;;;;;;;4.57;4.17;;;17.50;98.00;;;;;;10263845;28;20245;-80
2023/07/26 21:44:48;;;;;;;4.43;4.13;;;17.50;97.50;;;;;;10265997;28;20204;-79
2023/07/26 21:49:50;;;;;;;3.57;3.27;;;17.40;97.70;;;;;;10271339;28;21312;-79
2023/07/26 21:54:54;;;;;;;4.10;3.70;;;17.50;98.00;;;;;;10278847;28;20655;-81
2023/07/26 21:59:56;;;;;;;4.40;3.80;;;17.50;98.40;;;;;;10274706;28;20315;-80
2023/07/26 22:04:58;;;;;;;7.47;4.27;;;17.50;98.40;;;;;;10274371;28;20644;-81
2023/07/26 22:10:02;;;;;;;3.47;3.17;;;17.50;98.50;;;;;;10272389;28;21241;-80
2023/07/26 22:15:05;;;;;;;3.50;3.30;;;17.50;98.50;;;;;;10295003;28;20209;-80
2023/07/26 22:20:10;;;;;;;4.00;3.70;;;17.50;98.30;;;;;;10287138;28;20240;-80
2023/07/26 22:25:13;;;;;;;4.80;4.40;;;17.60;98.20;;;;;;10274734;28;20224;-81
2023/07/26 22:30:18;;;;;;;4.20;3.80;;;17.60;99.10;;;;;;10277290;28;20236;-80
2023/07/26 22:35:20;;;;;;;4.67;4.27;;;17.50;98.90;;;;;;10275938;28;20259;-80
2023/07/26 22:40:24;;;;;;;4.67;4.07;;;17.50;98.90;;;;;;10279445;28;20229;-80
2023/07/26 22:45:26;;;;;;;4.33;4.03;;;17.50;98.80;;;;;;10280744;28;20217;-81
2023/07/26 22:50:28;;;;;;;4.13;3.90;;;17.50;99.00;;;;;;10274120;28;21162;-80
2023/07/26 22:55:31;;;;;;;4.80;4.40;;;17.50;99.40;;;;;;10283423;28;20303;-82
2023/07/26 23:00:33;;;;;;;4.07;3.77;;;17.50;99.10;;;;;;10282243;28;20217;-79
2023/07/26 23:05:35;;;;;;;3.70;3.40;;;17.50;99.60;;;;;;10281733;28;20232;-81
2023/07/26 23:10:39;;;;;;;6.13;4.20;;;17.50;99.70;;;;;;10281838;28;20209;-80
2023/07/26 23:15:43;;;;;;;3.57;3.37;;;17.50;99.90;;;;;;10283016;28;20305;-81
2023/07/26 23:20:45;;;;;;;3.70;3.40;;;17.40;99.50;;;;;;10292342;28;20249;-80
2023/07/26 23:25:49;;;;;;;4.07;3.77;;;17.40;99.70;;;;;;10284893;28;20229;-81
2023/07/26 23:30:52;;;;;;;4.10;3.80;;;17.40;99.50;;;;;;10292722;28;21531;-80
2023/07/26 23:35:54;;;;;;;3.60;3.40;;;17.30;98.70;;;;;;10281500;28;20260;-80
2023/07/26 23:40:58;;;;;;;3.60;3.30;;;17.20;99.00;;;;;;10275087;28;20228;-80
2023/07/26 23:46:00;;;;;;;3.97;3.60;;;17.20;99.20;;;;;;10278377;28;20302;-80
2023/07/26 23:51:02;;;;;;;3.70;3.37;;;17.10;99.00;;;;;;10275855;28;20265;-79
2023/07/26 23:56:06;;;;;;;4.17;3.87;;;17.10;98.60;;;;;;10288420;28;20237;-81
